createdAt,value
2023-05-16T00:01:36.033Z,12.40
2023-05-16T00:04:04.746Z,12.35
2023-05-16T00:06:33.564Z,12.74
2023-05-16T00:09:02.273Z,12.39
2023-05-16T00:11:30.698Z,12.74
2023-05-16T00:13:59.533Z,12.59
2023-05-16T00:16:30.214Z,12.69
2023-05-16T00:19:01.424Z,12.83
2023-05-16T00:21:30.057Z,12.56
2023-05-16T00:23:58.831Z,12.36
2023-05-16T00:26:27.925Z,12.34
2023-05-16T00:28:57.895Z,12.19
2023-05-16T00:31:26.913Z,12.33
2023-05-16T00:33:55.981Z,12.46
2023-05-16T00:36:26.084Z,12.39
2023-05-16T00:38:54.587Z,12.19
2023-05-16T00:41:23.874Z,12.25
2023-05-16T00:43:55.504Z,12.22
2023-05-16T00:46:26.864Z,12.18
2023-05-16T00:48:57.321Z,12.48
2023-05-16T00:51:31.437Z,12.48
2023-05-16T00:54:01.286Z,12.54
2023-05-16T00:56:30.321Z,12.38
2023-05-16T00:58:59.577Z,12.30
2023-05-16T01:01:29.869Z,11.99
2023-05-16T01:04:00.925Z,12.55
2023-05-16T01:06:31.160Z,12.37
2023-05-16T01:09:00.419Z,12.08
2023-05-16T01:11:41.509Z,12.44
2023-05-16T01:14:25.642Z,12.20
2023-05-16T01:17:07.677Z,12.24
2023-05-16T01:19:58.010Z,12.12
2023-05-16T01:22:47.696Z,12.04
2023-05-16T01:25:32.723Z,12.25
2023-05-16T01:28:03.845Z,12.10
2023-05-16T01:30:36.919Z,12.22
2023-05-16T01:33:06.303Z,12.02
2023-05-16T01:35:36.926Z,12.08
2023-05-16T01:38:17.369Z,11.99
2023-05-16T01:40:54.545Z,12.05
2023-05-16T01:43:34.769Z,12.41
2023-05-16T01:46:12.342Z,12.43
2023-05-16T01:49:03.159Z,12.50
2023-05-16T01:51:34.915Z,12.34
2023-05-16T01:54:12.526Z,12.13
2023-05-16T01:56:46.226Z,12.28
2023-05-16T01:59:16.570Z,12.29
2023-05-16T02:01:45.075Z,12.13
2023-05-16T02:04:15.248Z,12.37
2023-05-16T02:06:43.935Z,12.42
2023-05-16T02:09:12.662Z,11.97
2023-05-16T02:11:40.978Z,12.52
2023-05-16T02:14:11.899Z,12.03
2023-05-16T02:16:41.784Z,12.29
2023-05-16T02:19:10.714Z,12.08
2023-05-16T02:21:39.367Z,12.07
2023-05-16T02:24:09.800Z,12.02
2023-05-16T02:26:39.563Z,12.48
2023-05-16T02:29:11.398Z,12.24
2023-05-16T02:31:43.287Z,12.51
2023-05-16T02:34:12.134Z,12.12
2023-05-16T02:36:40.427Z,12.31
2023-05-16T02:39:10.355Z,12.15
2023-05-16T02:41:39.220Z,12.39
2023-05-16T02:44:07.736Z,12.35
2023-05-16T02:46:36.917Z,12.13
2023-05-16T02:49:07.344Z,12.45
2023-05-16T02:51:36.437Z,12.20
2023-05-16T02:54:05.052Z,12.01
2023-05-16T02:56:33.596Z,12.27
2023-05-16T02:59:02.310Z,12.21
2023-05-16T03:01:33.350Z,11.81
2023-05-16T03:04:01.969Z,12.03
2023-05-16T03:06:32.065Z,12.05
2023-05-16T03:09:00.821Z,12.11
2023-05-16T03:11:29.272Z,12.11
2023-05-16T03:14:02.065Z,11.94
2023-05-16T03:16:30.821Z,12.33
2023-05-16T03:18:59.403Z,12.11
2023-05-16T03:21:28.913Z,12.03
2023-05-16T03:24:02.726Z,12.15
2023-05-16T03:26:33.169Z,12.08
2023-05-16T03:29:02.368Z,12.45
2023-05-16T03:31:34.858Z,12.21
2023-05-16T03:34:03.989Z,12.26
2023-05-16T03:36:32.348Z,12.46
2023-05-16T03:39:03.681Z,12.29
2023-05-16T03:41:32.276Z,12.11
2023-05-16T03:44:04.084Z,12.38
2023-05-16T03:46:34.122Z,12.43
2023-05-16T03:49:04.050Z,12.15
2023-05-16T03:51:34.102Z,12.39
2023-05-16T03:54:05.539Z,11.94
2023-05-16T03:56:35.464Z,12.26
2023-05-16T03:59:10.812Z,12.22
2023-05-16T04:01:39.499Z,12.37
2023-05-16T04:04:09.368Z,12.02
2023-05-16T04:06:39.253Z,11.89
2023-05-16T04:09:10.195Z,12.36
2023-05-16T04:11:40.425Z,12.13
2023-05-16T04:14:09.193Z,12.03
2023-05-16T04:16:40.821Z,12.18
2023-05-16T04:19:10.157Z,12.25
2023-05-16T04:21:40.099Z,11.91
2023-05-16T04:24:13.348Z,11.94
2023-05-16T04:26:45.640Z,12.32
2023-05-16T04:29:15.721Z,12.29
2023-05-16T04:31:47.417Z,12.43
2023-05-16T04:34:17.462Z,12.29
2023-05-16T04:41:59.594Z,12.46
2023-05-16T04:44:32.156Z,12.22
2023-05-16T04:47:01.053Z,12.01
2023-05-16T04:49:30.708Z,12.43
2023-05-16T04:52:01.259Z,12.43
2023-05-16T04:54:38.791Z,12.41
2023-05-16T04:57:09.229Z,12.76
2023-05-16T04:59:39.232Z,12.55
2023-05-16T05:02:08.822Z,12.45
2023-05-16T05:04:39.104Z,12.30
2023-05-16T05:07:09.816Z,13.01
2023-05-16T05:09:40.488Z,12.70
2023-05-16T05:12:13.851Z,12.64
2023-05-16T05:14:44.812Z,12.81
2023-05-16T05:17:15.324Z,12.84
2023-05-16T05:19:46.380Z,12.74
2023-05-16T05:22:17.946Z,12.78
2023-05-16T05:24:48.742Z,12.43
2023-05-16T05:27:22.361Z,12.64
2023-05-16T05:29:51.617Z,12.65
2023-05-16T05:32:23.070Z,12.76
2023-05-16T05:34:54.436Z,12.72
2023-05-16T05:37:27.784Z,12.39
2023-05-16T05:40:05.734Z,12.78
2023-05-16T05:42:36.946Z,12.85
2023-05-16T05:45:11.521Z,12.90
2023-05-16T05:47:40.625Z,13.18
2023-05-16T05:50:13.329Z,13.04
2023-05-16T05:52:42.514Z,12.89
2023-05-16T05:55:13.165Z,13.06
2023-05-16T05:57:46.912Z,13.22
2023-05-16T06:00:17.818Z,13.18
2023-05-16T06:02:47.337Z,12.92
2023-05-16T06:05:16.833Z,13.02
2023-05-16T06:07:46.408Z,12.85
2023-05-16T06:10:15.558Z,12.96
2023-05-16T06:12:47.469Z,12.70
2023-05-16T06:15:17.791Z,12.76
2023-05-16T06:17:46.651Z,13.18
2023-05-16T06:20:17.408Z,13.06
2023-05-16T06:22:46.542Z,13.24
2023-05-16T06:25:18.407Z,13.45
2023-05-16T06:27:54.774Z,13.29
2023-05-16T06:30:25.189Z,13.17
2023-05-16T06:32:57.186Z,13.55
2023-05-16T06:35:28.998Z,13.84
2023-05-16T06:37:58.114Z,13.57
2023-05-16T06:40:33.314Z,13.78
2023-05-16T06:43:09.201Z,14.03
2023-05-16T06:45:38.512Z,14.52
2023-05-16T06:48:09.767Z,14.41
2023-05-16T06:50:39.117Z,14.82
2023-05-16T06:53:12.349Z,14.74
2023-05-16T06:55:42.061Z,14.64
2023-05-16T06:58:14.142Z,14.72
2023-05-16T07:00:44.784Z,14.88
2023-05-16T07:03:17.427Z,15.00
2023-05-16T07:05:54.059Z,15.21
2023-05-16T07:08:25.885Z,14.95
2023-05-16T07:10:55.725Z,15.39
2023-05-16T07:13:26.062Z,15.81
2023-05-16T07:15:57.560Z,15.50
2023-05-16T07:18:27.530Z,15.66
2023-05-16T07:20:56.660Z,15.30
2023-05-16T07:23:25.761Z,15.43
2023-05-16T07:25:56.057Z,14.75
2023-05-16T07:28:28.668Z,15.32
2023-05-16T07:30:58.917Z,15.57
2023-05-16T07:33:31.360Z,16.11
2023-05-16T07:36:15.513Z,16.32
2023-05-16T07:38:52.140Z,16.24
2023-05-16T07:41:24.547Z,16.20
2023-05-16T07:43:56.351Z,16.43
2023-05-16T07:46:26.416Z,16.72
2023-05-16T07:48:55.145Z,17.24
2023-05-16T07:51:24.446Z,16.92
2023-05-16T07:53:53.339Z,17.14
2023-05-16T07:56:24.074Z,16.90
2023-05-16T07:58:54.026Z,17.32
2023-05-16T08:01:41.229Z,16.86
2023-05-16T08:04:16.551Z,17.13
2023-05-16T08:06:47.117Z,17.00
2023-05-16T08:09:15.939Z,17.29
2023-05-16T08:11:46.414Z,16.94
2023-05-16T08:14:17.532Z,17.72
2023-05-16T08:16:51.138Z,17.20
2023-05-16T08:19:23.896Z,17.35
2023-05-16T08:21:53.495Z,17.29
2023-05-16T08:24:23.261Z,17.32
2023-05-16T08:26:53.042Z,17.27
2023-05-16T08:29:23.158Z,17.46
2023-05-16T08:31:54.228Z,17.54
2023-05-16T08:34:23.173Z,17.81
2023-05-16T08:36:55.584Z,18.48
2023-05-16T08:39:26.478Z,18.16
2023-05-16T08:41:56.120Z,18.14
2023-05-16T08:44:28.205Z,17.73
2023-05-16T08:47:04.628Z,18.27
2023-05-16T08:49:36.501Z,18.29
2023-05-16T08:52:09.821Z,18.77
2023-05-16T08:54:41.257Z,19.20
2023-05-16T08:57:15.158Z,18.56
2023-05-16T08:59:44.991Z,17.87
2023-05-16T09:02:16.790Z,17.68
2023-05-16T09:04:49.091Z,18.23
2023-05-16T09:07:19.368Z,18.37
2023-05-16T09:09:50.070Z,18.21
2023-05-16T09:12:22.870Z,18.96
2023-05-16T09:14:53.972Z,19.15
2023-05-16T09:17:36.337Z,18.83
2023-05-16T09:20:14.467Z,19.26
2023-05-16T09:22:56.511Z,19.61
2023-05-16T09:25:31.500Z,19.12
2023-05-16T09:28:03.802Z,19.06
2023-05-16T09:30:39.556Z,19.38
2023-05-16T09:33:12.164Z,19.77
2023-05-16T09:35:45.640Z,19.73
2023-05-16T09:38:20.230Z,19.48
2023-05-16T09:40:50.676Z,19.45
2023-05-16T09:43:20.820Z,19.79
2023-05-16T09:45:51.751Z,19.86
2023-05-16T09:48:29.141Z,19.87
2023-05-16T09:51:03.557Z,20.01
2023-05-16T09:53:34.768Z,20.57
2023-05-16T09:56:08.099Z,21.00
2023-05-16T09:58:40.230Z,21.00
2023-05-16T10:01:17.361Z,21.41
2023-05-16T10:03:52.376Z,20.99
2023-05-16T10:06:24.498Z,20.98
2023-05-16T10:08:57.842Z,21.66
2023-05-16T10:11:29.177Z,20.91
2023-05-16T10:13:59.227Z,21.09
2023-05-16T10:16:29.987Z,20.52
2023-05-16T10:19:03.459Z,20.16
2023-05-16T10:21:36.190Z,21.57
2023-05-16T10:24:13.003Z,22.14
2023-05-16T10:26:44.145Z,22.26
2023-05-16T10:29:15.857Z,21.59
2023-05-16T10:31:47.876Z,21.89
2023-05-16T10:34:23.986Z,22.01
2023-05-16T10:37:04.128Z,22.11
2023-05-16T10:39:37.833Z,21.86
2023-05-16T10:42:14.501Z,22.21
2023-05-16T10:44:54.619Z,22.43
2023-05-16T10:47:32.911Z,22.89
2023-05-16T10:50:05.647Z,23.19
2023-05-16T10:52:40.894Z,22.89
2023-05-16T10:55:11.037Z,22.75
2023-05-16T10:57:41.153Z,22.41
2023-05-16T11:00:24.525Z,22.72
2023-05-16T11:02:53.610Z,22.17
2023-05-16T11:05:26.502Z,21.73
2023-05-16T11:08:07.159Z,21.69
2023-05-16T11:10:39.346Z,21.42
2023-05-16T11:13:11.414Z,21.56
2023-05-16T11:15:43.489Z,21.05
2023-05-16T11:18:20.083Z,20.17
2023-05-16T11:20:55.602Z,20.74
2023-05-16T11:23:27.990Z,20.15
2023-05-16T11:26:01.875Z,19.68
2023-05-16T11:28:31.798Z,20.16
2023-05-16T11:31:05.587Z,19.83
2023-05-16T11:33:37.705Z,20.35
2023-05-16T11:36:16.732Z,19.63
2023-05-16T11:39:00.673Z,21.06
2023-05-16T11:41:31.576Z,20.70
2023-05-16T11:44:01.286Z,20.96
2023-05-16T11:46:33.857Z,20.00
2023-05-16T11:49:05.959Z,19.78
2023-05-16T11:51:37.638Z,20.54
2023-05-16T11:54:10.572Z,21.47
2023-05-16T11:56:44.194Z,21.32
2023-05-16T11:59:13.265Z,21.29
2023-05-16T12:01:43.105Z,21.31
2023-05-16T12:04:14.549Z,21.13
2023-05-16T12:06:47.804Z,21.29
2023-05-16T12:09:21.015Z,21.24
2023-05-16T12:11:52.986Z,21.74
2023-05-16T12:14:26.268Z,22.10
2023-05-16T12:16:55.924Z,22.79
2023-05-16T12:19:27.886Z,22.72
2023-05-16T12:22:06.050Z,22.43
2023-05-16T12:24:35.227Z,22.32
2023-05-16T12:27:05.892Z,21.84
2023-05-16T12:29:42.588Z,21.71
2023-05-16T12:32:14.011Z,21.52
2023-05-16T12:34:53.538Z,22.25
2023-05-16T12:37:33.469Z,22.27
2023-05-16T12:40:14.143Z,22.40
2023-05-16T12:42:46.202Z,22.19
2023-05-16T12:45:19.915Z,21.47
2023-05-16T12:47:53.765Z,21.49
2023-05-16T12:50:30.392Z,21.97
2023-05-16T12:53:05.757Z,21.65
2023-05-16T12:55:34.908Z,20.29
2023-05-16T12:58:06.329Z,21.50
2023-05-16T13:00:37.020Z,22.16
2023-05-16T13:03:08.260Z,22.00
2023-05-16T13:05:39.078Z,23.14
2023-05-16T13:08:15.443Z,22.38
2023-05-16T13:10:48.222Z,22.19
2023-05-16T13:13:28.863Z,22.96
2023-05-16T13:16:08.054Z,23.94
2023-05-16T13:18:40.315Z,23.96
2023-05-16T13:21:09.097Z,23.41
2023-05-16T13:23:40.020Z,23.43
2023-05-16T13:26:11.829Z,23.07
2023-05-16T13:28:40.784Z,23.49
2023-05-16T13:31:10.250Z,22.76
2023-05-16T13:33:40.483Z,22.40
2023-05-16T13:36:11.009Z,23.18
2023-05-16T13:38:46.576Z,22.38
2023-05-16T13:41:21.195Z,22.26
2023-05-16T13:43:55.000Z,21.56
2023-05-16T13:46:25.593Z,22.52
2023-05-16T13:48:55.449Z,22.73
2023-05-16T13:51:27.015Z,23.16
2023-05-16T13:53:58.141Z,23.20
2023-05-16T13:56:32.044Z,21.42
2023-05-16T13:59:05.889Z,22.80
2023-05-16T14:01:42.085Z,23.12
2023-05-16T14:04:13.018Z,22.58
2023-05-16T14:06:43.597Z,22.00
2023-05-16T14:09:18.012Z,22.32
2023-05-16T14:11:47.264Z,21.73
2023-05-16T14:14:19.050Z,21.87
2023-05-16T14:16:47.969Z,21.62
2023-05-16T14:19:20.597Z,21.22
2023-05-16T14:21:54.307Z,21.59
2023-05-16T14:24:25.470Z,22.05
2023-05-16T14:26:55.472Z,21.91
2023-05-16T14:29:27.560Z,21.08
2023-05-16T14:32:02.396Z,21.17
2023-05-16T14:34:32.882Z,21.81
2023-05-16T14:37:02.294Z,22.33
2023-05-16T14:39:32.526Z,22.14
2023-05-16T14:42:02.022Z,22.82
2023-05-16T14:44:37.381Z,23.01
2023-05-16T14:47:07.209Z,22.57
2023-05-16T14:49:46.642Z,22.51
2023-05-16T14:52:18.132Z,22.00
2023-05-16T14:54:51.973Z,22.61
2023-05-16T14:57:22.660Z,22.60
2023-05-16T14:59:55.618Z,21.97
2023-05-16T15:02:27.513Z,22.08
2023-05-16T15:04:58.942Z,21.60
2023-05-16T15:07:28.500Z,20.34
2023-05-16T15:09:58.954Z,20.72
2023-05-16T15:12:31.344Z,20.20
2023-05-16T15:15:02.469Z,19.84
2023-05-16T15:17:33.162Z,20.15
2023-05-16T15:20:04.927Z,19.46
2023-05-16T15:22:35.387Z,19.02
2023-05-16T15:25:09.691Z,18.16
2023-05-16T15:27:38.752Z,18.77
2023-05-16T15:30:12.362Z,18.89
2023-05-16T15:32:41.717Z,18.35
2023-05-16T15:35:23.613Z,18.49
2023-05-16T15:37:54.544Z,18.22
2023-05-16T15:40:28.731Z,18.31
2023-05-16T15:43:02.967Z,17.55
2023-05-16T15:45:37.358Z,17.30
2023-05-16T15:48:12.001Z,17.56
2023-05-16T15:50:44.233Z,17.93
2023-05-16T15:53:15.903Z,17.88
2023-05-16T15:55:49.686Z,18.86
2023-05-16T15:58:20.661Z,20.08
2023-05-16T16:00:55.294Z,20.80
2023-05-16T16:03:26.544Z,22.30
2023-05-16T16:06:00.219Z,22.09
2023-05-16T16:08:34.504Z,23.12
2023-05-16T16:11:08.137Z,23.43
2023-05-16T16:13:38.874Z,22.05
2023-05-16T16:16:09.681Z,21.92
2023-05-16T16:18:39.056Z,21.37
2023-05-16T16:21:14.681Z,21.44
2023-05-16T16:23:44.548Z,19.89
2023-05-16T16:26:18.433Z,19.62
2023-05-16T16:28:50.609Z,19.42
2023-05-16T16:31:22.238Z,18.91
2023-05-16T16:33:52.296Z,19.24
2023-05-16T16:36:23.231Z,18.01
2023-05-16T16:38:52.346Z,18.19
2023-05-16T16:41:28.420Z,18.96
2023-05-16T16:43:57.788Z,18.19
2023-05-16T16:46:27.639Z,18.11
2023-05-16T16:48:57.489Z,18.26
2023-05-16T16:51:29.890Z,18.27
2023-05-16T16:54:00.631Z,18.13
2023-05-16T16:56:31.535Z,18.05
2023-05-16T16:59:01.372Z,17.97
2023-05-16T17:01:32.268Z,18.11
2023-05-16T17:04:02.665Z,18.15
2023-05-16T17:06:31.597Z,18.21
2023-05-16T17:09:03.758Z,18.42
2023-05-16T17:11:36.439Z,18.32
2023-05-16T17:14:07.538Z,18.28
2023-05-16T17:16:38.330Z,18.41
2023-05-16T17:19:07.621Z,17.76
2023-05-16T17:21:38.403Z,18.22
2023-05-16T17:24:12.174Z,17.56
2023-05-16T17:26:44.322Z,18.06
2023-05-16T17:29:14.539Z,18.32
2023-05-16T17:31:43.183Z,18.11
2023-05-16T17:34:14.183Z,18.49
2023-05-16T17:36:42.786Z,17.66
2023-05-16T17:39:16.584Z,18.08
2023-05-16T17:41:47.051Z,18.36
2023-05-16T17:44:16.640Z,17.99
2023-05-16T17:46:46.775Z,18.04
2023-05-16T17:49:18.474Z,17.77
2023-05-16T17:51:55.287Z,17.94
2023-05-16T17:54:31.019Z,17.87
2023-05-16T17:57:02.543Z,17.77
2023-05-16T17:59:34.702Z,17.85
2023-05-16T18:02:04.205Z,17.61
2023-05-16T18:04:34.628Z,17.45
2023-05-16T18:07:05.445Z,17.38
2023-05-16T18:09:40.604Z,17.37
2023-05-16T18:12:12.711Z,17.49
2023-05-16T18:14:46.993Z,17.36
2023-05-16T18:17:23.074Z,16.69
2023-05-16T18:19:55.411Z,16.45
2023-05-16T18:22:26.787Z,16.49
2023-05-16T18:24:55.852Z,16.26
2023-05-16T18:27:28.544Z,16.51
2023-05-16T18:29:58.655Z,16.44
2023-05-16T18:32:30.792Z,16.42
2023-05-16T18:35:01.715Z,16.26
2023-05-16T18:37:32.470Z,16.47
2023-05-16T18:40:05.073Z,16.38
2023-05-16T18:42:35.723Z,16.25
2023-05-16T18:45:07.282Z,16.26
2023-05-16T18:47:36.806Z,16.24
2023-05-16T18:50:12.217Z,16.29
2023-05-16T18:52:43.869Z,16.21
2023-05-16T18:55:16.355Z,16.01
2023-05-16T18:57:48.815Z,16.09
2023-05-16T19:00:22.911Z,15.77
2023-05-16T19:02:55.450Z,15.93
2023-05-16T19:05:24.494Z,15.75
2023-05-16T19:07:53.807Z,15.53
2023-05-16T19:10:25.180Z,15.71
2023-05-16T19:13:03.968Z,15.68
2023-05-16T19:15:34.646Z,15.15
2023-05-16T19:18:05.346Z,15.34
2023-05-16T19:20:36.788Z,15.48
2023-05-16T19:23:06.882Z,15.22
2023-05-16T19:25:47.505Z,15.52
2023-05-16T19:28:18.619Z,15.16
2023-05-16T19:30:47.945Z,15.29
2023-05-16T19:33:17.218Z,15.26
2023-05-16T19:35:46.700Z,14.97
2023-05-16T19:38:18.338Z,15.14
2023-05-16T19:40:50.826Z,15.07
2023-05-16T19:43:28.673Z,15.19
2023-05-16T19:45:59.545Z,15.36
2023-05-16T19:48:33.060Z,15.22
2023-05-16T19:51:07.006Z,15.35
2023-05-16T19:53:39.039Z,15.31
2023-05-16T19:56:18.882Z,14.89
2023-05-16T19:59:02.815Z,14.82
2023-05-16T20:01:36.623Z,14.71
2023-05-16T20:04:08.780Z,14.55
2023-05-16T20:06:43.048Z,14.57
2023-05-16T20:09:16.138Z,14.71
2023-05-16T20:11:53.616Z,14.69
2023-05-16T20:14:28.121Z,14.50
2023-05-16T20:17:00.104Z,14.54
2023-05-16T20:19:31.681Z,14.39
2023-05-16T20:22:05.040Z,14.26
2023-05-16T20:24:34.653Z,14.08
2023-05-16T20:27:07.736Z,14.06
2023-05-16T20:29:41.131Z,14.15
2023-05-16T20:32:11.655Z,14.27
2023-05-16T20:34:43.573Z,14.08
2023-05-16T20:37:27.321Z,14.05
2023-05-16T20:40:00.932Z,13.98
2023-05-16T20:42:31.869Z,13.70
2023-05-16T20:45:03.827Z,14.09
2023-05-16T20:47:33.128Z,13.87
2023-05-16T20:50:09.101Z,13.52
2023-05-16T20:52:38.543Z,13.92
2023-05-16T20:55:08.945Z,13.79
2023-05-16T20:57:38.438Z,14.00
2023-05-16T21:00:13.097Z,13.64
2023-05-16T21:02:42.564Z,13.63
2023-05-16T21:05:24.935Z,13.70
2023-05-16T21:08:03.519Z,13.60
2023-05-16T21:10:34.141Z,13.30
2023-05-16T21:13:07.383Z,13.67
2023-05-16T21:15:39.826Z,13.41
2023-05-16T21:18:12.890Z,13.14
2023-05-16T21:20:43.155Z,13.37
2023-05-16T21:23:13.758Z,13.26
2023-05-16T21:25:44.800Z,13.22
2023-05-16T21:28:15.152Z,13.36
2023-05-16T21:30:46.535Z,13.23
2023-05-16T21:33:16.367Z,13.18
2023-05-16T21:35:45.418Z,13.44
2023-05-16T21:38:14.608Z,13.35
2023-05-16T21:40:43.975Z,13.35
2023-05-16T21:43:21.209Z,13.22
2023-05-16T21:45:52.360Z,13.23
2023-05-16T21:48:21.776Z,12.92
2023-05-16T21:50:51.148Z,13.16
2023-05-16T21:53:24.097Z,13.27
2023-05-16T21:55:55.829Z,13.06
2023-05-16T21:58:25.409Z,13.19
2023-05-16T22:00:56.242Z,13.23
2023-05-16T22:03:27.311Z,13.12
2023-05-16T22:05:58.614Z,13.16
2023-05-16T22:08:27.458Z,13.16
2023-05-16T22:11:00.485Z,13.26
2023-05-16T22:13:31.532Z,13.20
2023-05-16T22:16:05.012Z,13.17
2023-05-16T22:18:38.155Z,12.93
2023-05-16T22:21:09.974Z,12.71
2023-05-16T22:23:41.731Z,13.10
2023-05-16T22:26:10.678Z,13.03
2023-05-16T22:28:41.051Z,13.21
2023-05-16T22:31:13.633Z,13.01
2023-05-16T22:33:44.426Z,13.34
2023-05-16T22:36:16.040Z,13.11
2023-05-16T22:38:45.333Z,13.22
2023-05-16T22:41:18.294Z,13.39
2023-05-16T22:43:48.298Z,13.34
2023-05-16T22:46:20.581Z,13.29
2023-05-16T22:48:54.388Z,13.06
2023-05-16T22:51:25.045Z,13.16
2023-05-16T22:53:55.272Z,13.25
2023-05-16T22:56:25.858Z,13.20
2023-05-16T22:58:54.844Z,13.21
2023-05-16T23:01:30.341Z,13.20
2023-05-16T23:03:59.404Z,13.07
2023-05-16T23:06:30.610Z,13.02
2023-05-16T23:09:03.107Z,13.04
2023-05-16T23:11:34.969Z,12.95
2023-05-16T23:14:04.958Z,13.06
2023-05-16T23:16:35.203Z,12.92
2023-05-16T23:19:05.550Z,12.85
2023-05-16T23:21:36.618Z,12.89
2023-05-16T23:24:06.978Z,12.68
2023-05-16T23:26:36.614Z,12.89
2023-05-16T23:29:07.334Z,12.89
2023-05-16T23:31:41.543Z,12.95
2023-05-16T23:34:11.474Z,13.14
2023-05-16T23:36:41.874Z,13.09
2023-05-16T23:39:11.352Z,13.00
2023-05-16T23:41:44.279Z,12.80
2023-05-16T23:44:15.104Z,13.01
2023-05-16T23:46:45.143Z,13.05
2023-05-16T23:49:14.997Z,12.98
2023-05-16T23:51:55.870Z,13.26
2023-05-16T23:54:26.051Z,12.90
2023-05-16T23:56:55.331Z,13.15
2023-05-16T23:59:24.885Z,13.34
